Time;durP1;ratioP1;P1;durP2;ratioP2;P2;SDS_P1;SDS_P2;PMS_P1;PMS_P2;Temp;Humidity;BMP_temperature;BMP_pressure;BME280_temperature;BME280_humidity;BME280_pressure;Samples;Min_cycle;Max_cycle;Signal;HPM_P1;HPM_P2
2023/04/18 00:02:37;;;;;;;7.47;5.85;;;15.70;68.40;;;;;;10289979;28;20015;-49
2023/04/18 00:07:38;;;;;;;7.60;5.65;;;15.70;68.30;;;;;;10289669;28;20022;-49
2023/04/18 00:12:40;;;;;;;8.20;5.95;;;15.70;68.30;;;;;;10289475;28;20498;-49
2023/04/18 00:17:40;;;;;;;6.90;5.60;;;15.70;68.20;;;;;;10271840;28;20015;-51
2023/04/18 00:22:41;;;;;;;8.07;6.55;;;15.70;68.20;;;;;;10288908;28;20065;-48
2023/04/18 00:27:42;;;;;;;7.03;5.97;;;15.70;68.30;;;;;;10288954;28;20030;-48
2023/04/18 00:32:43;;;;;;;7.32;6.10;;;15.60;68.10;;;;;;10288744;28;20687;-53
2023/04/18 00:37:43;;;;;;;8.20;6.20;;;15.60;68.00;;;;;;10288583;28;20107;-52
2023/04/18 00:42:44;;;;;;;10.90;6.32;;;15.60;68.00;;;;;;10270793;28;20122;-52
2023/04/18 00:47:44;;;;;;;6.00;5.30;;;15.60;67.90;;;;;;10288077;28;20134;-49
2023/04/18 00:52:46;;;;;;;6.57;5.65;;;15.60;67.80;;;;;;10270165;28;20358;-49
2023/04/18 00:57:47;;;;;;;6.57;5.30;;;15.60;67.40;;;;;;10287678;28;20101;-50
2023/04/18 01:02:51;;;;;;;6.78;5.47;;;15.60;67.40;;;;;;10287702;28;20371;-48
2023/04/18 01:07:57;;;;;;;7.57;5.38;;;15.60;67.60;;;;;;10287274;28;20383;-50
2023/04/18 01:13:19;;;;;;;6.68;5.45;;;15.50;67.50;;;;;;10270550;28;20062;-50
2023/04/18 01:18:21;;;;;;;6.90;5.57;;;15.50;67.40;;;;;;10286872;28;20459;-49
2023/04/18 01:23:22;;;;;;;6.75;5.88;;;15.50;67.40;;;;;;10286906;28;20058;-49
2023/04/18 01:28:22;;;;;;;6.57;5.43;;;15.60;67.30;;;;;;10286576;28;20620;-52
2023/04/18 01:33:23;;;;;;;7.30;5.90;;;15.50;67.20;;;;;;10269169;28;20043;-53
2023/04/18 01:38:24;;;;;;;6.15;5.38;;;15.50;67.10;;;;;;10286088;28;20029;-49
2023/04/18 01:43:24;;;;;;;9.63;6.43;;;15.50;67.00;;;;;;10268609;28;20058;-52
2023/04/18 01:48:25;;;;;;;8.45;5.28;;;15.50;66.80;;;;;;10284168;28;20051;-50
2023/04/18 01:53:26;;;;;;;6.30;5.43;;;15.50;66.80;;;;;;10285545;28;20058;-49
2023/04/18 01:58:26;;;;;;;7.25;5.78;;;15.50;66.90;;;;;;10285299;28;20011;-49
2023/04/18 02:03:27;;;;;;;7.88;5.78;;;15.50;66.60;;;;;;10285482;28;20738;-50
2023/04/18 02:08:29;;;;;;;7.47;5.72;;;15.50;66.40;;;;;;10285352;28;20437;-49
2023/04/18 02:13:30;;;;;;;6.80;6.07;;;15.40;65.80;;;;;;10285065;28;20030;-49
2023/04/18 02:18:33;;;;;;;7.72;5.43;;;15.40;65.60;;;;;;10267252;28;20549;-54
2023/04/18 02:23:34;;;;;;;7.47;5.43;;;15.40;66.00;;;;;;10284707;28;20034;-50
2023/04/18 02:28:37;;;;;;;6.30;5.63;;;15.40;65.90;;;;;;10284265;28;20069;-53
2023/04/18 02:33:38;;;;;;;7.28;5.80;;;15.40;65.80;;;;;;10284590;28;20379;-52
2023/04/18 02:38:39;;;;;;;6.97;5.72;;;15.40;65.30;;;;;;10284169;28;20109;-53
2023/04/18 02:43:40;;;;;;;7.38;5.25;;;15.40;65.40;;;;;;10284040;28;20109;-52
2023/04/18 02:48:41;;;;;;;7.82;5.93;;;15.30;65.50;;;;;;10283887;28;20047;-52
2023/04/18 02:53:41;;;;;;;7.05;6.07;;;15.30;65.60;;;;;;10283588;28;20033;-52
2023/04/18 02:58:42;;;;;;;5.68;4.90;;;15.30;65.40;;;;;;10283856;28;20034;-48
2023/04/18 03:03:43;;;;;;;5.47;4.88;;;15.40;66.70;;;;;;10273965;28;20122;-53
2023/04/18 03:08:44;;;;;;;7.88;5.60;;;15.60;65.70;;;;;;10283629;28;20019;-48
2023/04/18 03:13:44;;;;;;;7.93;5.50;;;15.70;64.90;;;;;;10289078;28;20069;-49
2023/04/18 03:18:45;;;;;;;7.40;5.82;;;15.80;64.60;;;;;;10291517;28;20157;-49
2023/04/18 03:23:46;;;;;;;6.65;5.38;;;16.00;64.20;;;;;;10273895;28;20176;-48
2023/04/18 03:28:46;;;;;;;5.85;4.80;;;16.20;63.80;;;;;;10290977;28;20102;-49
2023/04/18 03:33:47;;;;;;;6.13;5.18;;;16.30;63.60;;;;;;10290758;28;20058;-50
2023/04/18 03:38:48;;;;;;;5.88;4.05;;;16.30;63.60;;;;;;10290674;28;20029;-50
2023/04/18 03:43:49;;;;;;;6.07;5.18;;;16.20;63.80;;;;;;10290353;28;20696;-53
2023/04/18 03:48:49;;;;;;;5.75;4.35;;;16.10;63.70;;;;;;10290220;28;20144;-54
2023/04/18 03:53:50;;;;;;;6.90;5.50;;;16.10;63.60;;;;;;10290019;28;20027;-53
2023/04/18 03:58:51;;;;;;;5.35;4.82;;;16.10;63.70;;;;;;10272380;28;20050;-53
2023/04/18 04:03:52;;;;;;;6.30;5.70;;;16.10;63.80;;;;;;10296293;28;20034;-52
2023/04/18 04:08:52;;;;;;;6.43;5.32;;;16.00;63.90;;;;;;10295132;28;20094;-50
2023/04/18 04:13:53;;;;;;;7.05;5.85;;;15.90;63.90;;;;;;10285083;28;20106;-50
2023/04/18 04:18:54;;;;;;;7.03;5.43;;;16.00;63.90;;;;;;10287202;28;20195;-52
2023/04/18 04:23:54;;;;;;;5.85;5.05;;;16.00;63.60;;;;;;10288516;28;20023;-47
2023/04/18 04:28:56;;;;;;;5.25;4.72;;;16.00;63.60;;;;;;10288107;28;20066;-53
2023/04/18 04:33:56;;;;;;;6.93;4.85;;;16.00;63.70;;;;;;10287445;28;20023;-50
2023/04/18 04:38:57;;;;;;;7.15;4.97;;;15.90;63.80;;;;;;10284062;28;20035;-54
2023/04/18 04:43:58;;;;;;;6.25;4.85;;;16.00;64.00;;;;;;10268931;28;20121;-52
2023/04/18 04:48:59;;;;;;;6.00;4.65;;;16.10;63.70;;;;;;10287075;28;20082;-54
2023/04/18 04:54:00;;;;;;;9.93;4.80;;;16.20;64.40;;;;;;10285948;28;20546;-53
2023/04/18 04:59:01;;;;;;;6.45;4.63;;;16.20;65.20;;;;;;10286159;28;20029;-54
2023/04/18 05:04:01;;;;;;;7.25;4.50;;;16.20;65.20;;;;;;10285530;28;20075;-54
2023/04/18 05:09:02;;;;;;;8.57;5.13;;;16.20;65.10;;;;;;10285810;28;20102;-48
2023/04/18 05:14:03;;;;;;;21.35;6.25;;;16.30;65.40;;;;;;10286041;28;20031;-48
2023/04/18 05:19:04;;;;;;;18.30;6.35;;;16.40;65.20;;;;;;10267773;28;20486;-49
2023/04/18 05:24:05;;;;;;;24.75;6.60;;;16.40;66.40;;;;;;10267653;28;20445;-48
2023/04/18 05:29:05;;;;;;;26.58;7.05;;;16.30;65.90;;;;;;10285349;28;20098;-52
2023/04/18 05:34:06;;;;;;;14.70;6.25;;;16.20;66.50;;;;;;10285284;28;20060;-53
2023/04/18 05:39:07;;;;;;;22.23;8.10;;;16.20;66.70;;;;;;10283224;28;20106;-50
2023/04/18 05:44:08;;;;;;;14.15;6.18;;;16.10;66.50;;;;;;10283400;28;20039;-52
2023/04/18 05:49:08;;;;;;;31.05;8.70;;;16.00;66.70;;;;;;10284179;28;20066;-53
2023/04/18 05:54:09;;;;;;;29.60;7.93;;;16.00;66.80;;;;;;10268016;28;20015;-50
2023/04/18 05:59:10;;;;;;;31.25;8.45;;;16.00;67.10;;;;;;10285400;28;20019;-50
2023/04/18 06:04:11;;;;;;;24.40;7.28;;;15.90;66.80;;;;;;10284838;28;20029;-49
2023/04/18 06:09:11;;;;;;;21.50;8.00;;;15.90;66.70;;;;;;10271078;28;20015;-53
2023/04/18 06:14:12;;;;;;;18.17;7.20;;;15.80;66.90;;;;;;10283608;28;20109;-52
2023/04/18 06:19:13;;;;;;;25.92;7.90;;;15.80;66.50;;;;;;10283684;28;20617;-54
2023/04/18 06:24:13;;;;;;;27.48;7.78;;;15.80;66.80;;;;;;10283039;28;20354;-54
2023/04/18 06:29:14;;;;;;;18.77;6.32;;;15.80;66.90;;;;;;10280350;28;20031;-52
2023/04/18 06:34:15;;;;;;;19.75;7.10;;;15.70;67.40;;;;;;10280625;28;20110;-50
2023/04/18 06:39:16;;;;;;;18.05;7.10;;;15.70;67.00;;;;;;10283287;28;20019;-50
2023/04/18 06:44:16;;;;;;;14.85;6.30;;;15.70;66.90;;;;;;10266471;28;20576;-53
2023/04/18 06:49:17;;;;;;;13.50;6.85;;;15.70;66.70;;;;;;10278714;28;20144;-48
2023/04/18 06:54:18;;;;;;;13.70;6.68;;;15.70;66.70;;;;;;10266385;28;20050;-47
2023/04/18 06:59:20;;;;;;;11.27;6.07;;;15.80;66.60;;;;;;10282990;28;20062;-49
2023/04/18 07:04:21;;;;;;;15.93;6.13;;;15.90;66.20;;;;;;10283838;28;20019;-48
2023/04/18 07:09:21;;;;;;;19.00;6.05;;;15.90;65.90;;;;;;10269862;28;20118;-53
2023/04/18 07:14:23;;;;;;;9.05;6.30;;;15.90;65.90;;;;;;10283678;28;20126;-49
2023/04/18 07:19:24;;;;;;;15.25;5.88;;;15.90;65.80;;;;;;10265596;28;20034;-52
2023/04/18 07:24:25;;;;;;;10.98;6.03;;;15.90;66.20;;;;;;10281420;28;20039;-52
2023/04/18 07:29:25;;;;;;;10.02;4.93;;;15.90;65.80;;;;;;10280855;28;20615;-54
2023/04/18 07:34:28;;;;;;;12.95;5.55;;;15.90;65.80;;;;;;10282646;28;20030;-55
2023/04/18 07:39:34;;;;;;;8.48;5.57;;;15.90;66.10;;;;;;10278083;28;20023;-51
2023/04/18 07:44:35;;;;;;;12.63;6.13;;;15.80;65.80;;;;;;10281555;28;20754;-48
2023/04/18 07:49:36;;;;;;;11.35;5.28;;;15.80;66.20;;;;;;10280463;28;20134;-53
2023/04/18 07:54:37;;;;;;;10.45;5.53;;;15.80;66.00;;;;;;10262355;28;20027;-53
2023/04/18 07:59:38;;;;;;;9.50;5.05;;;15.80;65.20;;;;;;10286330;28;20750;-52
2023/04/18 08:04:39;;;;;;;8.60;4.90;;;15.70;65.30;;;;;;10288485;28;20142;-52
2023/04/18 08:09:39;;;;;;;8.32;4.55;;;15.80;65.20;;;;;;10290892;28;20110;-53
2023/04/18 08:14:40;;;;;;;7.95;4.50;;;15.80;65.40;;;;;;10269647;28;20054;-51
2023/04/18 08:19:41;;;;;;;9.35;4.88;;;15.80;65.30;;;;;;10287115;28;20538;-49
2023/04/18 08:24:41;;;;;;;8.80;4.97;;;15.70;65.10;;;;;;10288805;28;20396;-51
2023/04/18 08:29:42;;;;;;;6.65;5.05;;;15.70;65.10;;;;;;10288399;28;20413;-53
2023/04/18 08:34:43;;;;;;;7.25;4.93;;;15.80;65.10;;;;;;10288405;28;20530;-51
2023/04/18 08:39:43;;;;;;;6.40;4.45;;;15.80;65.10;;;;;;10288354;28;20050;-52
2023/04/18 08:44:46;;;;;;;8.23;4.30;;;15.80;65.10;;;;;;10287447;28;20468;-51
2023/04/18 08:49:46;;;;;;;5.65;3.88;;;15.70;65.20;;;;;;10287121;28;20396;-53
2023/04/18 08:54:49;;;;;;;7.10;3.63;;;15.80;65.10;;;;;;10286520;28;20035;-53
2023/04/18 08:59:52;;;;;;;6.97;4.63;;;15.80;65.30;;;;;;10287102;28;20038;-52
2023/04/18 09:04:54;;;;;;;6.18;4.18;;;15.80;65.00;;;;;;10287283;28;20160;-49
2023/04/18 09:09:56;;;;;;;5.63;3.80;;;15.80;64.90;;;;;;10253152;28;20049;-51
2023/04/18 09:15:15;;;;;;;7.65;3.70;;;15.80;64.70;;;;;;10291202;28;20496;-52
2023/04/18 09:20:39;;;;;;;5.53;4.05;;;15.80;65.00;;;;;;10299769;28;20121;-52
2023/04/18 09:25:40;;;;;;;4.80;3.97;;;15.80;65.10;;;;;;10286134;28;20069;-48
2023/04/18 09:30:41;;;;;;;4.78;3.60;;;15.80;65.10;;;;;;10286377;28;20033;-51
2023/04/18 09:35:42;;;;;;;5.35;3.67;;;15.80;65.00;;;;;;10286159;28;20023;-51
2023/04/18 09:40:43;;;;;;;6.63;3.80;;;15.80;64.80;;;;;;10284289;28;20027;-52
2023/04/18 09:45:47;;;;;;;6.88;3.72;;;15.80;64.70;;;;;;10283868;28;20555;-53
2023/04/18 09:50:49;;;;;;;5.38;3.90;;;15.70;64.80;;;;;;10285730;28;20022;-52
2023/04/18 09:55:53;;;;;;;5.25;3.35;;;15.80;64.80;;;;;;10285598;28;20037;-52
2023/04/18 10:00:55;;;;;;;5.18;3.60;;;15.80;64.70;;;;;;10284500;28;20031;-50
2023/04/18 10:05:56;;;;;;;4.75;3.30;;;15.80;65.10;;;;;;10285982;28;20034;-52
2023/04/18 10:10:57;;;;;;;6.68;3.70;;;15.80;65.00;;;;;;10245984;28;20384;-50
2023/04/18 10:15:58;;;;;;;6.20;2.95;;;15.90;72.30;;;;;;10265919;28;20019;-51
2023/04/18 10:21:03;;;;;;;6.32;3.53;;;16.00;70.40;;;;;;10282229;28;20023;-55
2023/04/18 10:26:06;;;;;;;3.40;2.70;;;16.00;70.10;;;;;;10265668;28;20035;-52
2023/04/18 10:31:07;;;;;;;4.53;3.20;;;16.00;69.80;;;;;;10283056;28;20029;-52
2023/04/18 10:36:07;;;;;;;5.47;3.53;;;16.00;69.50;;;;;;10282046;28;20673;-54
2023/04/18 10:41:18;;;;;;;4.40;3.30;;;16.10;69.20;;;;;;10282445;28;20129;-54
2023/04/18 10:46:19;;;;;;;4.60;3.05;;;16.20;69.10;;;;;;10280760;28;20041;-48
2023/04/18 10:51:20;;;;;;;3.95;2.75;;;16.20;69.00;;;;;;10265739;28;20062;-53
2023/04/18 10:56:21;;;;;;;4.72;2.58;;;16.10;69.10;;;;;;10266311;28;20022;-53
2023/04/18 11:01:29;;;;;;;3.50;2.63;;;16.10;69.20;;;;;;10282968;28;20023;-55
2023/04/18 11:06:30;;;;;;;5.05;3.35;;;16.10;69.20;;;;;;10283675;28;20536;-53
2023/04/18 11:11:30;;;;;;;4.95;2.83;;;16.10;70.60;;;;;;10264275;28;20041;-49
2023/04/18 11:16:32;;;;;;;5.82;2.85;;;16.20;70.00;;;;;;10281717;28;20019;-48
2023/04/18 11:21:33;;;;;;;5.80;3.15;;;16.30;68.80;;;;;;10282574;28;20025;-52
2023/04/18 11:26:37;;;;;;;4.57;3.10;;;16.30;69.30;;;;;;10282532;28;20038;-54
2023/04/18 11:31:37;;;;;;;4.25;2.72;;;16.20;68.20;;;;;;10265397;28;20022;-51
2023/04/18 11:36:38;;;;;;;4.72;3.30;;;16.10;67.30;;;;;;10289595;28;20025;-51
2023/04/18 11:41:40;;;;;;;4.82;2.65;;;16.10;67.50;;;;;;10238041;28;20039;-52
2023/04/18 11:46:41;;;;;;;7.05;3.55;;;16.20;70.00;;;;;;10287878;28;20047;-49
2023/04/18 11:51:45;;;;;;;7.20;3.88;;;16.20;69.80;;;;;;10288339;28;20509;-51
2023/04/18 11:56:48;;;;;;;5.00;2.92;;;16.20;69.00;;;;;;10272058;28;20034;-54
2023/04/18 12:02:01;;;;;;;4.43;3.05;;;16.20;69.30;;;;;;10287872;28;20023;-53
2023/04/18 12:07:02;;;;;;;5.40;2.88;;;16.20;68.90;;;;;;10269618;28;20058;-55
2023/04/18 12:12:04;;;;;;;4.47;2.95;;;16.20;68.70;;;;;;10288477;28;20019;-54
2023/04/18 12:17:04;;;;;;;6.68;3.38;;;16.10;68.40;;;;;;10288807;28;20082;-54
2023/04/18 12:22:05;;;;;;;6.55;3.40;;;16.00;68.50;;;;;;10288249;28;20606;-52
2023/04/18 12:27:06;;;;;;;18.27;5.18;;;16.10;69.10;;;;;;10286405;28;20638;-54
2023/04/18 12:32:06;;;;;;;32.72;6.57;;;16.10;67.50;;;;;;10262074;28;20501;-49
2023/04/18 12:37:08;;;;;;;23.83;5.70;;;16.10;68.10;;;;;;10269187;28;20049;-52
2023/04/18 12:42:08;;;;;;;37.40;5.97;;;16.10;68.20;;;;;;10287316;28;20077;-50
2023/04/18 12:47:09;;;;;;;34.05;6.43;;;16.10;68.60;;;;;;10285332;28;20078;-53
2023/04/18 12:52:10;;;;;;;28.15;5.80;;;16.20;69.00;;;;;;10285766;28;20019;-53
2023/04/18 12:57:10;;;;;;;24.55;6.70;;;16.20;68.40;;;;;;10288798;28;20106;-51
2023/04/18 13:02:11;;;;;;;24.88;6.85;;;16.20;69.20;;;;;;10267836;28;20054;-53
2023/04/18 13:07:12;;;;;;;24.63;6.53;;;16.20;68.30;;;;;;10269784;28;20035;-51
2023/04/18 13:12:12;;;;;;;19.25;5.57;;;16.20;68.10;;;;;;10269902;28;20084;-48
2023/04/18 13:17:13;;;;;;;18.05;5.32;;;16.10;68.20;;;;;;10286560;28;20199;-56
2023/04/18 13:22:14;;;;;;;16.55;5.25;;;16.20;68.50;;;;;;10284352;28;20023;-49
2023/04/18 13:27:15;;;;;;;20.73;6.13;;;16.30;68.20;;;;;;10280703;28;21398;-51
2023/04/18 13:32:15;;;;;;;19.42;6.18;;;16.30;68.30;;;;;;10281323;28;20048;-52
2023/04/18 13:37:16;;;;;;;16.60;5.97;;;16.20;68.50;;;;;;10290307;28;20042;-54
2023/04/18 13:42:18;;;;;;;16.08;7.13;;;16.10;67.70;;;;;;10281905;28;20030;-54
2023/04/18 13:47:18;;;;;;;13.93;6.85;;;16.00;67.50;;;;;;10293755;28;20494;-54
2023/04/18 13:52:19;;;;;;;9.20;5.50;;;16.00;67.40;;;;;;10281098;28;20018;-52
2023/04/18 13:57:20;;;;;;;11.73;5.20;;;16.00;67.30;;;;;;10281025;28;20114;-51
2023/04/18 14:02:21;;;;;;;13.85;6.20;;;16.00;67.30;;;;;;10281534;28;20036;-53
2023/04/18 14:07:22;;;;;;;12.15;5.82;;;16.00;67.40;;;;;;10288857;28;20037;-52
2023/04/18 14:12:22;;;;;;;12.02;5.57;;;16.00;67.40;;;;;;10284002;28;20054;-52
2023/04/18 14:17:23;;;;;;;12.38;6.10;;;16.00;67.30;;;;;;10284100;28;20023;-54
2023/04/18 14:22:24;;;;;;;10.88;5.40;;;16.10;67.20;;;;;;10283591;28;20526;-55
2023/04/18 14:27:25;;;;;;;12.52;6.15;;;16.10;67.10;;;;;;10278958;28;20700;-55
2023/04/18 14:32:26;;;;;;;21.50;6.85;;;16.10;67.10;;;;;;10281608;28;20094;-54
2023/04/18 14:37:26;;;;;;;25.50;8.10;;;16.20;67.40;;;;;;10281932;28;20433;-56
2023/04/18 14:42:27;;;;;;;29.33;7.82;;;16.20;67.50;;;;;;10282359;28;20023;-56
2023/04/18 14:47:30;;;;;;;32.20;8.18;;;16.20;67.60;;;;;;10264802;28;20161;-54
2023/04/18 14:52:31;;;;;;;25.50;8.65;;;16.20;67.90;;;;;;10282062;28;20455;-52
2023/04/18 14:57:37;;;;;;;26.25;8.38;;;16.20;67.30;;;;;;10281322;28;20046;-55
2023/04/18 15:02:38;;;;;;;26.48;7.90;;;16.20;67.00;;;;;;10279648;28;20042;-54
2023/04/18 15:07:39;;;;;;;22.92;8.02;;;16.20;66.90;;;;;;10284693;28;20027;-54
2023/04/18 15:12:41;;;;;;;13.45;6.82;;;16.30;66.30;;;;;;10291037;28;20053;-56
2023/04/18 15:17:42;;;;;;;18.58;7.60;;;16.40;67.20;;;;;;10273480;28;20105;-53
2023/04/18 15:22:42;;;;;;;18.50;7.90;;;16.60;65.30;;;;;;10256493;28;20125;-51
2023/04/18 15:27:43;;;;;;;11.35;7.75;;;16.80;65.50;;;;;;10290210;28;20218;-55
2023/04/18 15:32:44;;;;;;;12.98;8.00;;;16.80;66.60;;;;;;10288467;28;20366;-54
2023/04/18 15:37:45;;;;;;;12.32;8.43;;;16.90;66.70;;;;;;10244864;28;20026;-55
2023/04/18 15:42:48;;;;;;;13.82;9.57;;;16.80;66.70;;;;;;10292989;28;20110;-54
2023/04/18 15:47:49;;;;;;;12.27;9.23;;;16.80;67.90;;;;;;10287159;28;20039;-54
2023/04/18 15:52:49;;;;;;;9.75;8.25;;;16.80;68.30;;;;;;10271867;28;20027;-56
2023/04/18 15:57:50;;;;;;;10.88;7.63;;;16.80;67.80;;;;;;10283075;28;20544;-56
2023/04/18 16:02:51;;;;;;;9.00;7.63;;;16.90;66.70;;;;;;10289638;28;20019;-55
2023/04/18 16:07:52;;;;;;;9.75;8.35;;;16.80;66.00;;;;;;10288515;28;20533;-55
2023/04/18 16:12:53;;;;;;;8.80;6.97;;;16.60;66.40;;;;;;10289114;28;20074;-54
2023/04/18 16:17:54;;;;;;;10.65;7.43;;;16.50;66.60;;;;;;10267396;28;20430;-55
2023/04/18 16:22:54;;;;;;;10.13;6.60;;;16.50;66.60;;;;;;10287046;28;20030;-55
2023/04/18 16:27:55;;;;;;;10.23;6.30;;;16.70;64.50;;;;;;10288201;28;20778;-56
2023/04/18 16:32:56;;;;;;;17.65;7.30;;;16.70;64.20;;;;;;10271256;28;20692;-55
2023/04/18 16:37:56;;;;;;;15.15;7.78;;;16.80;67.90;;;;;;10286210;28;20027;-57
2023/04/18 16:42:57;;;;;;;20.25;7.47;;;17.00;68.40;;;;;;10288486;28;20481;-56
2023/04/18 16:47:58;;;;;;;15.70;6.30;;;17.10;68.30;;;;;;10288087;28;20126;-55
2023/04/18 16:52:59;;;;;;;17.95;7.60;;;17.10;68.40;;;;;;10287723;28;20086;-55
2023/04/18 16:57:59;;;;;;;14.02;6.07;;;17.00;68.30;;;;;;10287649;28;20114;-57
2023/04/18 17:03:00;;;;;;;10.82;6.22;;;16.90;68.30;;;;;;10286877;28;20382;-54
2023/04/18 17:08:02;;;;;;;19.48;6.15;;;16.80;68.50;;;;;;10287490;28;20110;-55
2023/04/18 17:13:03;;;;;;;13.75;6.18;;;16.70;68.60;;;;;;10285746;28;20015;-55
2023/04/18 17:18:04;;;;;;;15.57;7.38;;;16.80;68.50;;;;;;10265715;28;20034;-56
2023/04/18 17:23:04;;;;;;;15.30;7.22;;;16.80;68.50;;;;;;10286498;28;20019;-53
2023/04/18 17:28:05;;;;;;;15.93;6.40;;;16.70;68.20;;;;;;10286339;28;20110;-55
2023/04/18 17:33:06;;;;;;;10.18;5.32;;;16.60;68.40;;;;;;10285638;28;20495;-54
2023/04/18 17:38:09;;;;;;;16.38;6.70;;;16.50;68.40;;;;;;10282263;28;20358;-53
2023/04/18 17:43:10;;;;;;;11.35;5.68;;;16.50;68.40;;;;;;10285602;28;20077;-55
2023/04/18 17:48:11;;;;;;;14.23;7.13;;;16.50;68.10;;;;;;10268180;28;20166;-55
2023/04/18 17:53:12;;;;;;;10.40;6.03;;;16.40;68.30;;;;;;10285697;28;20019;-55
2023/04/18 17:58:12;;;;;;;12.05;5.65;;;16.40;68.30;;;;;;10285187;28;20021;-55
2023/04/18 18:03:14;;;;;;;13.65;6.45;;;16.40;68.10;;;;;;10285003;28;20686;-55
2023/04/18 18:08:15;;;;;;;11.07;5.97;;;16.40;68.30;;;;;;10263081;28;20533;-56
2023/04/18 18:13:16;;;;;;;12.38;5.68;;;16.40;69.10;;;;;;10283908;28;20030;-55
2023/04/18 18:18:17;;;;;;;12.25;5.97;;;16.40;68.30;;;;;;10267346;28;20720;-56
2023/04/18 18:23:17;;;;;;;15.05;5.28;;;16.40;68.20;;;;;;10284512;28;20057;-55
2023/04/18 18:28:18;;;;;;;11.13;6.15;;;16.30;68.20;;;;;;10284646;28;20521;-55
2023/04/18 18:33:19;;;;;;;11.95;4.95;;;16.30;68.30;;;;;;10284094;28;20136;-55
2023/04/18 18:38:19;;;;;;;10.25;5.70;;;16.30;68.30;;;;;;10283957;28;20101;-55
2023/04/18 18:43:25;;;;;;;8.90;5.30;;;16.30;68.40;;;;;;10283233;28;20627;-57
2023/04/18 18:48:28;;;;;;;9.82;5.15;;;16.40;68.10;;;;;;10283499;28;20047;-55
2023/04/18 18:53:30;;;;;;;12.57;5.43;;;16.30;68.10;;;;;;10265894;28;20039;-56
2023/04/18 18:58:30;;;;;;;14.82;5.72;;;16.30;68.40;;;;;;10264017;28;20101;-56
2023/04/18 19:03:32;;;;;;;8.35;5.68;;;16.20;68.40;;;;;;10277154;28;20434;-56
2023/04/18 19:08:34;;;;;;;7.57;4.78;;;16.30;68.50;;;;;;10276815;28;20027;-56
2023/04/18 19:13:34;;;;;;;9.30;5.70;;;16.30;68.60;;;;;;10282862;28;20662;-56
2023/04/18 19:18:35;;;;;;;7.18;5.57;;;16.30;68.40;;;;;;10248836;28;20102;-54
2023/04/18 19:23:36;;;;;;;7.47;4.65;;;16.30;68.30;;;;;;10279692;28;20527;-56
2023/04/18 19:28:36;;;;;;;7.15;4.75;;;16.20;68.40;;;;;;10279886;28;20466;-54
2023/04/18 19:33:37;;;;;;;7.43;4.43;;;16.10;68.60;;;;;;10278599;28;20294;-56
2023/04/18 19:38:38;;;;;;;6.20;4.30;;;16.10;68.80;;;;;;10280147;28;20027;-55
2023/04/18 19:43:39;;;;;;;6.40;4.35;;;16.10;68.90;;;;;;10280345;28;20106;-55
2023/04/18 19:48:40;;;;;;;8.10;4.70;;;16.00;68.90;;;;;;10279004;28;20047;-55
2023/04/18 19:53:41;;;;;;;7.78;4.50;;;16.00;68.90;;;;;;10265673;28;20086;-55
2023/04/18 19:58:45;;;;;;;5.97;4.22;;;16.00;68.60;;;;;;10270945;28;20053;-55
2023/04/18 20:03:46;;;;;;;6.50;5.10;;;16.00;68.80;;;;;;10289226;28;20390;-54
2023/04/18 20:08:47;;;;;;;9.55;4.72;;;16.00;68.40;;;;;;10271433;28;20023;-55
2023/04/18 20:13:48;;;;;;;6.85;4.95;;;16.00;67.90;;;;;;10271529;28;20058;-55
2023/04/18 20:18:50;;;;;;;6.28;4.93;;;15.90;67.70;;;;;;10289003;28;20057;-56
2023/04/18 20:23:50;;;;;;;6.78;4.03;;;15.90;67.60;;;;;;10289019;28;20023;-56
2023/04/18 20:28:51;;;;;;;6.65;4.45;;;15.90;67.50;;;;;;10287929;28;20113;-56
2023/04/18 20:33:51;;;;;;;6.32;4.88;;;15.90;67.60;;;;;;10288565;28;20161;-56
2023/04/18 20:38:52;;;;;;;6.75;4.70;;;15.90;67.40;;;;;;10288094;28;20098;-56
2023/04/18 20:43:53;;;;;;;5.22;3.78;;;15.90;67.40;;;;;;10287845;28;20126;-55
2023/04/18 20:48:53;;;;;;;5.78;4.60;;;15.90;67.20;;;;;;10287837;28;20133;-55
2023/04/18 20:53:54;;;;;;;5.57;4.55;;;15.80;67.10;;;;;;10287433;28;20110;-55
2023/04/18 20:58:55;;;;;;;5.93;4.22;;;15.80;67.10;;;;;;10287341;28;20116;-55
2023/04/18 21:03:56;;;;;;;7.20;4.40;;;15.80;66.90;;;;;;10276183;28;20057;-55
2023/04/18 21:08:56;;;;;;;7.70;4.57;;;15.80;66.90;;;;;;10287382;28;20030;-56
2023/04/18 21:13:57;;;;;;;5.70;4.40;;;15.90;66.80;;;;;;10286364;28;20066;-56
2023/04/18 21:18:58;;;;;;;6.70;4.28;;;15.80;66.70;;;;;;10286619;28;20066;-55
2023/04/18 21:24:00;;;;;;;5.40;4.40;;;15.80;66.70;;;;;;10286670;28;20030;-56
2023/04/18 21:29:03;;;;;;;5.22;3.92;;;15.80;66.60;;;;;;10286331;28;20015;-56
2023/04/18 21:34:04;;;;;;;5.57;4.60;;;15.80;66.60;;;;;;10276674;28;20027;-56
2023/04/18 21:39:05;;;;;;;5.72;3.80;;;15.80;66.50;;;;;;10286120;28;20011;-55
2023/04/18 21:44:05;;;;;;;5.03;4.20;;;15.80;66.40;;;;;;10285742;28;20111;-56
2023/04/18 21:49:06;;;;;;;6.18;4.75;;;15.80;66.40;;;;;;10285385;28;20043;-56
2023/04/18 21:54:07;;;;;;;4.32;3.42;;;15.80;66.40;;;;;;10283945;28;20022;-55
2023/04/18 21:59:08;;;;;;;5.43;3.85;;;15.70;66.20;;;;;;10285360;28;20530;-56
2023/04/18 22:04:11;;;;;;;7.57;4.75;;;15.70;66.20;;;;;;10274206;28;20595;-54
2023/04/18 22:09:11;;;;;;;6.32;4.72;;;15.70;66.30;;;;;;10285077;28;20015;-56
2023/04/18 22:14:13;;;;;;;4.82;3.78;;;15.70;66.30;;;;;;10267407;28;20110;-56
2023/04/18 22:19:14;;;;;;;6.50;5.25;;;15.70;66.20;;;;;;10284084;28;20015;-55
2023/04/18 22:24:14;;;;;;;6.65;4.40;;;15.70;66.10;;;;;;10279169;28;20121;-56
2023/04/18 22:29:15;;;;;;;5.70;3.83;;;15.70;66.20;;;;;;10283511;28;20018;-56
2023/04/18 22:34:16;;;;;;;5.88;4.00;;;15.70;66.10;;;;;;10284434;28;20107;-56
2023/04/18 22:39:16;;;;;;;5.78;4.00;;;15.70;66.10;;;;;;10283669;28;20055;-56
2023/04/18 22:44:17;;;;;;;5.05;3.58;;;15.70;66.10;;;;;;10284029;28;20121;-55
2023/04/18 22:49:18;;;;;;;4.60;3.75;;;15.70;66.00;;;;;;10283264;28;20038;-56
2023/04/18 22:54:19;;;;;;;4.85;4.00;;;15.70;65.90;;;;;;10283757;28;20469;-56
2023/04/18 22:59:20;;;;;;;4.65;4.13;;;15.60;65.90;;;;;;10283438;28;20457;-56
2023/04/18 23:04:21;;;;;;;6.43;4.20;;;15.60;65.80;;;;;;10283580;28;20076;-56
2023/04/18 23:09:23;;;;;;;6.45;4.47;;;15.70;66.40;;;;;;10283178;28;20077;-55
2023/04/18 23:14:24;;;;;;;4.70;3.83;;;15.60;65.80;;;;;;10287139;28;20027;-54
2023/04/18 23:19:24;;;;;;;5.38;4.53;;;15.60;65.80;;;;;;10283013;28;20026;-55
2023/04/18 23:24:25;;;;;;;5.25;4.18;;;15.60;65.80;;;;;;10282955;28;20030;-55
2023/04/18 23:29:26;;;;;;;5.38;4.50;;;15.60;65.90;;;;;;10268895;28;20150;-56
2023/04/18 23:34:26;;;;;;;4.82;3.92;;;15.60;65.90;;;;;;10290627;28;20026;-56
2023/04/18 23:39:27;;;;;;;5.35;4.05;;;15.60;65.90;;;;;;10290843;28;20441;-56
2023/04/18 23:44:28;;;;;;;5.20;4.32;;;15.60;65.90;;;;;;10290705;28;20039;-55
2023/04/18 23:49:29;;;;;;;6.50;4.30;;;15.60;66.40;;;;;;10289934;28;20051;-56
2023/04/18 23:54:30;;;;;;;5.15;3.92;;;15.60;65.90;;;;;;10290189;28;20554;-56
2023/04/18 23:59:30;;;;;;;6.40;4.28;;;15.50;65.90;;;;;;10272604;28;20605;-56
